Wayana — PE5639 — position and weather

sailwx.info

Track history (hours):
 
Tides and Currents Weather Stations Pressure Air Temp Water Temp Dewpoint Dewpoint Depression Visibility Wind Speed Wind Dir Waves Ship Positions

Wayana

Last reported at 2015-Jan-04 17:18 UTC. Time now 2015-Jan-31 22:44 UTC.
Position N 52°55' E 005°03'.
Warning: this ship's position is 27 days out of date.

Length 14 m.

Type: Sailing vessel. MMSI: 244020670.

Date/timePositionNaut miles runAvg speedWind from/ knotsBaromVisibWave heightAir tempDewpointWater temp
2015-Jan-04 17:18N 52°55' E 005°03'0 0.0
2015-Jan-04 16:33N 52°55' E 005°03'0 0.0
2015-Jan-04 15:33N 52°55' E 005°03'0 0.0
2015-Jan-04 14:33N 52°55' E 005°03'0 0.0
2015-Jan-04 13:33N 52°55' E 005°03'2 2.0
2015-Jan-04 12:33N 52°56' E 005°06'7 7.1
2015-Jan-04 11:33N 53°01' E 005°15'5 4.8
2015-Jan-04 10:33N 53°04' E 005°20'5 5.3
2015-Jan-04 09:33N 53°09' E 005°23'1 0.1
2015-Jan-03 20:11N 53°11' E 005°25'0 0.0
2015-Jan-03 19:32N 53°11' E 005°25'0 0.0
2015-Jan-03 18:32N 53°11' E 005°25'0 0.0
2015-Jan-03 17:32N 53°11' E 005°25'0 0.0
2015-Jan-03 16:32N 53°11' E 005°25'0 0.0
2015-Jan-03 15:32N 53°11' E 005°25'0 0.1
2015-Jan-03 14:33N 53°11' E 005°25'4 4.4
2015-Jan-03 13:33N 53°13' E 005°18'4 4.5
2015-Jan-03 12:33N 53°15' E 005°11'5 5.0
2015-Jan-03 11:33N 53°19' E 005°15'3 3.0
2015-Jan-03 10:33N 53°22' E 005°13'0 0.0
2015-Jan-03 09:33N 53°22' E 005°13'0 0.0
2015-Jan-03 08:33N 53°22' E 005°13'0 0.0
2015-Jan-02 18:17N 53°22' E 005°13'0 0.0
2015-Jan-02 17:29N 53°22' E 005°13'0 0.0
2015-Jan-02 16:32N 53°22' E 005°13'0 0.0
2015-Jan-02 15:29N 53°22' E 005°13'0 0.0
2015-Jan-02 14:29N 53°22' E 005°13'0 0.0
2015-Jan-02 13:32N 53°22' E 005°13'0 0.0
2015-Jan-02 12:32N 53°22' E 005°13'0 0.0
2015-Jan-02 11:32N 53°22' E 005°13'0 0.0
2015-Jan-02 10:32N 53°22' E 005°13'0 0.0
2014-Dec-31 23:32N 53°22' E 005°13'0 0.0
2014-Dec-31 22:32N 53°22' E 005°13'0 0.0
2014-Dec-31 21:32N 53°22' E 005°13'0 0.0
2014-Dec-31 20:32N 53°22' E 005°13'0 0.0
2014-Dec-31 19:32N 53°22' E 005°13'0 0.0
2014-Dec-31 18:32N 53°22' E 005°13'0 0.0
2014-Dec-31 17:32N 53°22' E 005°13'0 0.0
2014-Dec-31 16:32N 53°22' E 005°13'0 0.0
2014-Dec-31 15:32N 53°22' E 005°13'0 0.0
2014-Dec-31 14:32N 53°22' E 005°13'0 0.0
2014-Dec-31 13:32N 53°22' E 005°13'0 0.0
2014-Dec-31 12:32N 53°22' E 005°13'0 0.0
2014-Dec-31 11:32N 53°22' E 005°13'0 0.0
2014-Dec-31 10:32N 53°22' E 005°13'0 0.0
2014-Dec-31 09:32N 53°22' E 005°13'0 0.0
2014-Dec-31 08:32N 53°22' E 005°13'  
Track history (hours):
 
Tides and Currents Weather Stations Pressure Air Temp Water Temp Dewpoint Dewpoint Depression Visibility Wind Speed Wind Dir Waves Ship Positions

Wayana

Last reported at 2015-Jan-04 17:18 UTC. Time now 2015-Jan-31 22:44 UTC.
Position N 52°55' E 005°03'.
Warning: this ship's position is 27 days out of date.

Length 14 m.

Type: Sailing vessel. MMSI: 244020670.

Date/timePositionNaut miles runAvg speedWind from/ knotsBaromVisibWave heightAir tempDewpointWater temp
2015-Jan-04 17:18N 52°55' E 005°03'0 0.0
2015-Jan-04 16:33N 52°55' E 005°03'0 0.0
2015-Jan-04 15:33N 52°55' E 005°03'0 0.0
2015-Jan-04 14:33N 52°55' E 005°03'0 0.0
2015-Jan-04 13:33N 52°55' E 005°03'2 2.0
2015-Jan-04 12:33N 52°56' E 005°06'7 7.1
2015-Jan-04 11:33N 53°01' E 005°15'5 4.8
2015-Jan-04 10:33N 53°04' E 005°20'5 5.3
2015-Jan-04 09:33N 53°09' E 005°23'1 0.1
2015-Jan-03 20:11N 53°11' E 005°25'0 0.0
2015-Jan-03 19:32N 53°11' E 005°25'0 0.0
2015-Jan-03 18:32N 53°11' E 005°25'0 0.0
2015-Jan-03 17:32N 53°11' E 005°25'0 0.0
2015-Jan-03 16:32N 53°11' E 005°25'0 0.0
2015-Jan-03 15:32N 53°11' E 005°25'0 0.1
2015-Jan-03 14:33N 53°11' E 005°25'4 4.4
2015-Jan-03 13:33N 53°13' E 005°18'4 4.5
2015-Jan-03 12:33N 53°15' E 005°11'5 5.0
2015-Jan-03 11:33N 53°19' E 005°15'3 3.0
2015-Jan-03 10:33N 53°22' E 005°13'0 0.0
2015-Jan-03 09:33N 53°22' E 005°13'0 0.0
2015-Jan-03 08:33N 53°22' E 005°13'0 0.0
2015-Jan-02 18:17N 53°22' E 005°13'0 0.0
2015-Jan-02 17:29N 53°22' E 005°13'0 0.0
2015-Jan-02 16:32N 53°22' E 005°13'0 0.0
2015-Jan-02 15:29N 53°22' E 005°13'0 0.0
2015-Jan-02 14:29N 53°22' E 005°13'0 0.0
2015-Jan-02 13:32N 53°22' E 005°13'0 0.0
2015-Jan-02 12:32N 53°22' E 005°13'0 0.0
2015-Jan-02 11:32N 53°22' E 005°13'0 0.0
2015-Jan-02 10:32N 53°22' E 005°13'0 0.0
2014-Dec-31 23:32N 53°22' E 005°13'0 0.0
2014-Dec-31 22:32N 53°22' E 005°13'0 0.0
2014-Dec-31 21:32N 53°22' E 005°13'0 0.0
2014-Dec-31 20:32N 53°22' E 005°13'0 0.0
2014-Dec-31 19:32N 53°22' E 005°13'0 0.0
2014-Dec-31 18:32N 53°22' E 005°13'0 0.0
2014-Dec-31 17:32N 53°22' E 005°13'0 0.0
2014-Dec-31 16:32N 53°22' E 005°13'0 0.0
2014-Dec-31 15:32N 53°22' E 005°13'0 0.0
2014-Dec-31 14:32N 53°22' E 005°13'0 0.0
2014-Dec-31 13:32N 53°22' E 005°13'0 0.0
2014-Dec-31 12:32N 53°22' E 005°13'0 0.0
2014-Dec-31 11:32N 53°22' E 005°13'0 0.0
2014-Dec-31 10:32N 53°22' E 005°13'0 0.0
2014-Dec-31 09:32N 53°22' E 005°13'0 0.0
2014-Dec-31 08:32N 53°22' E 005°13'  

Dump ship's entire track history